sensor_id;sensor_type;location;lat;lon;timestamp;pressure;altitude;pressure_sealevel;temperature;humidity
72162;BME280;66366;51.646;5.842;2023-03-23T00:01:23;100160.0;;;19.5;53.0
72162;BME280;66366;51.646;5.842;2023-03-23T00:06:26;100150.0;;;19.5;53.0
72162;BME280;66366;51.646;5.842;2023-03-23T00:11:25;100150.0;;;19.5;53.0
72162;BME280;66366;51.646;5.842;2023-03-23T00:16:24;100170.0;;;19.5;53.0
72162;BME280;66366;51.646;5.842;2023-03-23T00:26:23;100150.0;;;19.5;53.0
72162;BME280;66366;51.646;5.842;2023-03-23T00:31:23;100170.0;;;19.5;53.0
72162;BME280;66366;51.646;5.842;2023-03-23T00:36:24;100170.0;;;19.5;53.0
72162;BME280;66366;51.646;5.842;2023-03-23T00:41:23;100160.0;;;19.5;53.0
72162;BME280;66366;51.646;5.842;2023-03-23T00:46:24;100150.0;;;19.5;53.0
72162;BME280;66366;51.646;5.842;2023-03-23T00:51:24;100160.0;;;19.5;53.0
72162;BME280;66366;51.646;5.842;2023-03-23T00:56:23;100170.0;;;19.5;53.0
72162;BME280;66366;51.646;5.842;2023-03-23T01:01:23;100150.0;;;19.5;53.0
72162;BME280;66366;51.646;5.842;2023-03-23T01:06:23;100140.0;;;19.5;53.0
72162;BME280;66366;51.646;5.842;2023-03-23T01:11:23;100130.0;;;19.5;53.0
72162;BME280;66366;51.646;5.842;2023-03-23T01:16:23;100150.0;;;19.5;53.0
72162;BME280;66366;51.646;5.842;2023-03-23T01:21:23;100150.0;;;19.5;53.0
72162;BME280;66366;51.646;5.842;2023-03-23T01:26:25;100150.0;;;19.5;53.0
72162;BME280;66366;51.646;5.842;2023-03-23T01:31:25;100100.0;;;19.5;53.0
72162;BME280;66366;51.646;5.842;2023-03-23T01:36:25;100090.0;;;19.5;53.0
72162;BME280;66366;51.646;5.842;2023-03-23T01:41:24;100080.0;;;19.5;53.0
72162;BME280;66366;51.646;5.842;2023-03-23T01:46:24;100070.0;;;19.5;53.0
72162;BME280;66366;51.646;5.842;2023-03-23T01:51:24;100060.0;;;19.5;53.0
72162;BME280;66366;51.646;5.842;2023-03-23T01:56:29;100070.0;;;19.5;53.0
72162;BME280;66366;51.646;5.842;2023-03-23T02:01:24;100080.0;;;19.5;53.0
72162;BME280;66366;51.646;5.842;2023-03-23T02:06:23;100080.0;;;19.5;53.0
72162;BME280;66366;51.646;5.842;2023-03-23T02:11:23;100060.0;;;19.5;53.0
72162;BME280;66366;51.646;5.842;2023-03-23T02:16:44;100040.0;;;19.5;53.0
72162;BME280;66366;51.646;5.842;2023-03-23T02:23:02;100050.0;;;19.5;53.0
72162;BME280;66366;51.646;5.842;2023-03-23T02:29:02;100030.0;;;19.5;53.0
72162;BME280;66366;51.646;5.842;2023-03-23T02:34:19;100030.0;;;19.6;53.0
72162;BME280;66366;51.646;5.842;2023-03-23T02:37:49;100020.0;;;19.5;53.0
72162;BME280;66366;51.646;5.842;2023-03-23T02:41:27;100030.0;;;19.5;53.0
72162;BME280;66366;51.646;5.842;2023-03-23T02:46:24;100030.0;;;19.5;53.0
72162;BME280;66366;51.646;5.842;2023-03-23T02:51:24;100030.0;;;19.5;53.0
72162;BME280;66366;51.646;5.842;2023-03-23T02:56:26;100020.0;;;19.5;53.0
72162;BME280;66366;51.646;5.842;2023-03-23T03:01:59;100020.0;;;19.5;53.0
72162;BME280;66366;51.646;5.842;2023-03-23T03:06:46;100030.0;;;19.5;53.0
72162;BME280;66366;51.646;5.842;2023-03-23T03:11:23;100020.0;;;19.5;53.0
72162;BME280;66366;51.646;5.842;2023-03-23T03:16:36;100020.0;;;19.6;53.0
72162;BME280;66366;51.646;5.842;2023-03-23T03:21:27;100030.0;;;19.5;53.0
72162;BME280;66366;51.646;5.842;2023-03-23T03:26:25;100030.0;;;19.5;53.0
72162;BME280;66366;51.646;5.842;2023-03-23T03:31:29;100020.0;;;19.5;53.0
72162;BME280;66366;51.646;5.842;2023-03-23T03:36:26;100030.0;;;19.6;53.0
72162;BME280;66366;51.646;5.842;2023-03-23T03:41:24;100030.0;;;19.5;53.0
72162;BME280;66366;51.646;5.842;2023-03-23T03:46:23;100040.0;;;19.6;53.0
72162;BME280;66366;51.646;5.842;2023-03-23T03:51:24;100030.0;;;19.5;53.0
72162;BME280;66366;51.646;5.842;2023-03-23T03:56:24;100040.0;;;19.6;53.0
72162;BME280;66366;51.646;5.842;2023-03-23T04:01:23;100030.0;;;19.5;53.0
72162;BME280;66366;51.646;5.842;2023-03-23T04:06:24;100040.0;;;19.5;53.0
72162;BME280;66366;51.646;5.842;2023-03-23T04:11:24;100040.0;;;19.6;53.0
72162;BME280;66366;51.646;5.842;2023-03-23T04:16:24;100050.0;;;19.5;53.0
72162;BME280;66366;51.646;5.842;2023-03-23T04:21:23;100050.0;;;19.6;53.0
72162;BME280;66366;51.646;5.842;2023-03-23T04:26:24;100050.0;;;19.5;53.0
72162;BME280;66366;51.646;5.842;2023-03-23T04:31:24;100050.0;;;19.5;53.0
72162;BME280;66366;51.646;5.842;2023-03-23T04:36:24;100060.0;;;19.5;53.0
72162;BME280;66366;51.646;5.842;2023-03-23T04:41:24;100060.0;;;19.5;53.0
72162;BME280;66366;51.646;5.842;2023-03-23T04:46:25;100070.0;;;19.5;53.0
72162;BME280;66366;51.646;5.842;2023-03-23T04:51:24;100080.0;;;19.5;53.0
72162;BME280;66366;51.646;5.842;2023-03-23T04:56:24;100080.0;;;19.5;53.0
72162;BME280;66366;51.646;5.842;2023-03-23T05:01:24;100080.0;;;19.5;53.0
72162;BME280;66366;51.646;5.842;2023-03-23T05:06:24;100070.0;;;19.5;53.0
72162;BME280;66366;51.646;5.842;2023-03-23T05:11:24;100070.0;;;19.5;53.0
72162;BME280;66366;51.646;5.842;2023-03-23T05:16:24;100070.0;;;19.5;53.0
72162;BME280;66366;51.646;5.842;2023-03-23T05:21:24;100080.0;;;19.5;53.0
72162;BME280;66366;51.646;5.842;2023-03-23T05:26:24;100080.0;;;19.6;53.0
72162;BME280;66366;51.646;5.842;2023-03-23T05:31:24;100080.0;;;19.6;53.0
72162;BME280;66366;51.646;5.842;2023-03-23T05:36:24;100080.0;;;19.6;53.0
72162;BME280;66366;51.646;5.842;2023-03-23T05:41:24;100090.0;;;19.6;53.0
72162;BME280;66366;51.646;5.842;2023-03-23T05:46:24;100090.0;;;19.6;53.0
72162;BME280;66366;51.646;5.842;2023-03-23T05:51:24;100080.0;;;19.6;53.0
72162;BME280;66366;51.646;5.842;2023-03-23T06:01:24;100100.0;;;19.6;53.0
72162;BME280;66366;51.646;5.842;2023-03-23T06:06:24;100090.0;;;19.6;53.0
72162;BME280;66366;51.646;5.842;2023-03-23T06:11:24;100090.0;;;19.6;53.0
72162;BME280;66366;51.646;5.842;2023-03-23T06:16:24;100100.0;;;19.5;53.0
72162;BME280;66366;51.646;5.842;2023-03-23T06:21:24;100100.0;;;19.6;53.0
72162;BME280;66366;51.646;5.842;2023-03-23T06:26:30;100120.0;;;19.5;53.0
72162;BME280;66366;51.646;5.842;2023-03-23T06:31:25;100120.0;;;19.5;53.0
72162;BME280;66366;51.646;5.842;2023-03-23T06:36:24;100140.0;;;19.5;53.0
72162;BME280;66366;51.646;5.842;2023-03-23T06:41:24;100150.0;;;19.6;53.0
72162;BME280;66366;51.646;5.842;2023-03-23T06:46:24;100150.0;;;19.6;53.0
72162;BME280;66366;51.646;5.842;2023-03-23T06:51:24;100150.0;;;19.6;53.0
72162;BME280;66366;51.646;5.842;2023-03-23T06:56:24;100160.0;;;19.6;53.0
72162;BME280;66366;51.646;5.842;2023-03-23T07:01:24;100160.0;;;19.6;53.0
72162;BME280;66366;51.646;5.842;2023-03-23T07:06:24;100160.0;;;19.6;53.0
72162;BME280;66366;51.646;5.842;2023-03-23T07:11:24;100170.0;;;19.6;53.0
72162;BME280;66366;51.646;5.842;2023-03-23T07:16:24;100170.0;;;19.6;53.0
72162;BME280;66366;51.646;5.842;2023-03-23T07:21:24;100170.0;;;19.5;53.0
72162;BME280;66366;51.646;5.842;2023-03-23T07:26:24;100180.0;;;19.5;53.0
72162;BME280;66366;51.646;5.842;2023-03-23T07:31:24;100200.0;;;19.6;53.0
72162;BME280;66366;51.646;5.842;2023-03-23T07:36:25;100200.0;;;19.6;53.0
72162;BME280;66366;51.646;5.842;2023-03-23T07:41:24;100190.0;;;19.6;53.0
72162;BME280;66366;51.646;5.842;2023-03-23T07:51:24;100200.0;;;19.6;53.0
72162;BME280;66366;51.646;5.842;2023-03-23T07:56:24;100200.0;;;19.6;53.0
72162;BME280;66366;51.646;5.842;2023-03-23T08:01:24;100200.0;;;19.6;53.0
72162;BME280;66366;51.646;5.842;2023-03-23T08:06:24;100210.0;;;19.6;53.0
72162;BME280;66366;51.646;5.842;2023-03-23T08:11:24;100210.0;;;19.6;53.0
72162;BME280;66366;51.646;5.842;2023-03-23T08:16:24;100230.0;;;19.6;53.0
72162;BME280;66366;51.646;5.842;2023-03-23T08:21:24;100230.0;;;19.6;53.0
72162;BME280;66366;51.646;5.842;2023-03-23T08:26:24;100230.0;;;19.6;53.0
72162;BME280;66366;51.646;5.842;2023-03-23T08:31:24;100240.0;;;19.6;53.0
72162;BME280;66366;51.646;5.842;2023-03-23T08:36:24;100240.0;;;19.6;53.0
72162;BME280;66366;51.646;5.842;2023-03-23T08:41:24;100250.0;;;19.6;53.0
72162;BME280;66366;51.646;5.842;2023-03-23T08:46:24;100250.0;;;19.6;53.0
72162;BME280;66366;51.646;5.842;2023-03-23T08:51:24;100270.0;;;19.6;53.0
72162;BME280;66366;51.646;5.842;2023-03-23T08:56:24;100240.0;;;19.6;53.0
72162;BME280;66366;51.646;5.842;2023-03-23T09:01:24;100250.0;;;19.6;53.0
72162;BME280;66366;51.646;5.842;2023-03-23T09:06:25;100260.0;;;19.6;53.0
72162;BME280;66366;51.646;5.842;2023-03-23T09:11:24;100260.0;;;19.6;53.0
72162;BME280;66366;51.646;5.842;2023-03-23T09:16:25;100270.0;;;19.7;53.0
72162;BME280;66366;51.646;5.842;2023-03-23T09:21:25;100240.0;;;19.7;53.0
72162;BME280;66366;51.646;5.842;2023-03-23T09:26:25;100250.0;;;19.7;53.0
72162;BME280;66366;51.646;5.842;2023-03-23T09:31:24;100230.0;;;19.7;53.0
72162;BME280;66366;51.646;5.842;2023-03-23T09:36:25;100240.0;;;19.7;52.5
72162;BME280;66366;51.646;5.842;2023-03-23T09:42:10;100260.0;;;19.7;52.5
72162;BME280;66366;51.646;5.842;2023-03-23T09:46:55;100270.0;;;19.7;52.5
72162;BME280;66366;51.646;5.842;2023-03-23T09:51:42;100280.0;;;19.7;52.5
72162;BME280;66366;51.646;5.842;2023-03-23T09:56:26;100270.0;;;19.7;52.5
72162;BME280;66366;51.646;5.842;2023-03-23T10:01:32;100280.0;;;19.7;52.5
72162;BME280;66366;51.646;5.842;2023-03-23T10:06:25;100280.0;;;19.7;52.5
72162;BME280;66366;51.646;5.842;2023-03-23T10:11:38;100300.0;;;19.7;52.5
72162;BME280;66366;51.646;5.842;2023-03-23T10:16:31;100300.0;;;19.8;52.5
72162;BME280;66366;51.646;5.842;2023-03-23T10:21:28;100300.0;;;19.8;52.5
72162;BME280;66366;51.646;5.842;2023-03-23T10:26:41;100300.0;;;19.8;52.5
72162;BME280;66366;51.646;5.842;2023-03-23T10:31:33;100290.0;;;19.8;52.5
72162;BME280;66366;51.646;5.842;2023-03-23T10:36:29;100300.0;;;19.8;52.5
72162;BME280;66366;51.646;5.842;2023-03-23T10:41:25;100320.0;;;19.8;52.5
72162;BME280;66366;51.646;5.842;2023-03-23T10:46:29;100320.0;;;19.8;52.5
72162;BME280;66366;51.646;5.842;2023-03-23T10:51:34;100320.0;;;19.8;52.5
72162;BME280;66366;51.646;5.842;2023-03-23T10:56:27;100320.0;;;19.9;52.0
72162;BME280;66366;51.646;5.842;2023-03-23T11:01:30;100330.0;;;19.9;52.0
72162;BME280;66366;51.646;5.842;2023-03-23T11:06:27;100320.0;;;19.9;52.0
72162;BME280;66366;51.646;5.842;2023-03-23T11:11:28;100310.0;;;19.9;52.0
72162;BME280;66366;51.646;5.842;2023-03-23T11:16:26;100320.0;;;19.9;52.0
72162;BME280;66366;51.646;5.842;2023-03-23T11:21:27;100310.0;;;19.9;52.0
72162;BME280;66366;51.646;5.842;2023-03-23T11:26:27;100310.0;;;19.9;52.0
72162;BME280;66366;51.646;5.842;2023-03-23T11:31:28;100310.0;;;19.9;52.0
72162;BME280;66366;51.646;5.842;2023-03-23T11:36:29;100310.0;;;19.9;52.5
72162;BME280;66366;51.646;5.842;2023-03-23T11:41:29;100310.0;;;19.9;52.0
72162;BME280;66366;51.646;5.842;2023-03-23T11:46:38;100330.0;;;19.9;52.5
72162;BME280;66366;51.646;5.842;2023-03-23T11:51:29;100320.0;;;19.9;52.5
72162;BME280;66366;51.646;5.842;2023-03-23T11:56:30;100330.0;;;19.9;52.5
72162;BME280;66366;51.646;5.842;2023-03-23T12:01:36;100330.0;;;19.9;52.5
72162;BME280;66366;51.646;5.842;2023-03-23T12:07:35;100320.0;;;19.9;52.5
72162;BME280;66366;51.646;5.842;2023-03-23T12:12:51;100310.0;;;19.9;52.5
72162;BME280;66366;51.646;5.842;2023-03-23T12:17:35;100310.0;;;19.9;52.5
72162;BME280;66366;51.646;5.842;2023-03-23T12:23:05;100300.0;;;20.0;52.5
72162;BME280;66366;51.646;5.842;2023-03-23T12:27:46;100290.0;;;19.9;52.5
72162;BME280;66366;51.646;5.842;2023-03-23T12:32:50;100320.0;;;20.0;52.5
72162;BME280;66366;51.646;5.842;2023-03-23T12:37:57;100310.0;;;20.0;52.5
72162;BME280;66366;51.646;5.842;2023-03-23T12:43:01;100290.0;;;20.0;52.5
72162;BME280;66366;51.646;5.842;2023-03-23T12:47:03;100280.0;;;20.0;52.5
72162;BME280;66366;51.646;5.842;2023-03-23T12:51:48;100260.0;;;20.0;52.5
72162;BME280;66366;51.646;5.842;2023-03-23T12:56:29;100260.0;;;20.0;52.5
72162;BME280;66366;51.646;5.842;2023-03-23T13:01:32;100260.0;;;20.0;52.0
72162;BME280;66366;51.646;5.842;2023-03-23T13:06:44;100240.0;;;20.1;52.0
72162;BME280;66366;51.646;5.842;2023-03-23T13:11:30;100260.0;;;20.1;52.0
72162;BME280;66366;51.646;5.842;2023-03-23T13:16:49;100290.0;;;20.1;52.0
72162;BME280;66366;51.646;5.842;2023-03-23T13:21:50;100290.0;;;20.1;52.0
72162;BME280;66366;51.646;5.842;2023-03-23T13:26:25;100280.0;;;20.1;52.0
72162;BME280;66366;51.646;5.842;2023-03-23T13:31:27;100280.0;;;20.1;52.0
72162;BME280;66366;51.646;5.842;2023-03-23T13:36:28;100300.0;;;20.2;52.0
72162;BME280;66366;51.646;5.842;2023-03-23T13:41:26;100280.0;;;20.1;52.0
72162;BME280;66366;51.646;5.842;2023-03-23T13:46:28;100280.0;;;20.2;52.0
72162;BME280;66366;51.646;5.842;2023-03-23T13:51:51;100260.0;;;20.1;52.0
72162;BME280;66366;51.646;5.842;2023-03-23T13:56:51;100250.0;;;20.1;52.5
72162;BME280;66366;51.646;5.842;2023-03-23T14:01:34;100250.0;;;20.0;52.5
72162;BME280;66366;51.646;5.842;2023-03-23T14:06:25;100290.0;;;20.0;52.5
72162;BME280;66366;51.646;5.842;2023-03-23T14:11:28;100310.0;;;20.0;53.0
72162;BME280;66366;51.646;5.842;2023-03-23T14:16:32;100340.0;;;20.0;53.0
72162;BME280;66366;51.646;5.842;2023-03-23T14:21:35;100310.0;;;20.0;53.0
72162;BME280;66366;51.646;5.842;2023-03-23T14:26:26;100290.0;;;20.0;53.0
72162;BME280;66366;51.646;5.842;2023-03-23T14:31:28;100300.0;;;20.0;53.0
72162;BME280;66366;51.646;5.842;2023-03-23T14:36:29;100290.0;;;20.5;51.5
72162;BME280;66366;51.646;5.842;2023-03-23T14:41:27;100260.0;;;20.8;51.0
72162;BME280;66366;51.646;5.842;2023-03-23T14:46:25;100240.0;;;20.9;51.0
72162;BME280;66366;51.646;5.842;2023-03-23T14:51:25;100220.0;;;20.9;50.5
72162;BME280;66366;51.646;5.842;2023-03-23T14:56:35;100220.0;;;20.9;51.0
72162;BME280;66366;51.646;5.842;2023-03-23T15:01:27;100200.0;;;20.7;51.5
72162;BME280;66366;51.646;5.842;2023-03-23T15:06:29;100210.0;;;20.6;51.5
72162;BME280;66366;51.646;5.842;2023-03-23T15:11:29;100230.0;;;20.5;52.0
72162;BME280;66366;51.646;5.842;2023-03-23T15:16:29;100240.0;;;20.4;52.5
72162;BME280;66366;51.646;5.842;2023-03-23T15:21:30;100250.0;;;20.4;52.5
72162;BME280;66366;51.646;5.842;2023-03-23T15:26:27;100250.0;;;20.3;52.5
72162;BME280;66366;51.646;5.842;2023-03-23T15:31:25;100240.0;;;20.3;53.0
72162;BME280;66366;51.646;5.842;2023-03-23T15:36:31;100220.0;;;20.3;53.0
72162;BME280;66366;51.646;5.842;2023-03-23T15:41:27;100210.0;;;20.2;53.0
72162;BME280;66366;51.646;5.842;2023-03-23T15:46:27;100200.0;;;20.2;53.0
72162;BME280;66366;51.646;5.842;2023-03-23T15:51:26;100190.0;;;20.2;53.0
72162;BME280;66366;51.646;5.842;2023-03-23T15:56:25;100200.0;;;20.1;53.0
72162;BME280;66366;51.646;5.842;2023-03-23T16:01:27;100220.0;;;20.1;53.0
72162;BME280;66366;51.646;5.842;2023-03-23T16:06:27;100200.0;;;20.1;53.5
72162;BME280;66366;51.646;5.842;2023-03-23T16:11:29;100170.0;;;20.1;53.5
72162;BME280;66366;51.646;5.842;2023-03-23T16:16:36;100180.0;;;20.1;53.0
72162;BME280;66366;51.646;5.842;2023-03-23T16:21:26;100210.0;;;20.1;53.5
72162;BME280;66366;51.646;5.842;2023-03-23T16:26:26;100210.0;;;20.1;53.5
72162;BME280;66366;51.646;5.842;2023-03-23T16:36:25;100190.0;;;20.1;53.0
72162;BME280;66366;51.646;5.842;2023-03-23T16:41:25;100230.0;;;20.1;53.0
72162;BME280;66366;51.646;5.842;2023-03-23T16:46:25;100230.0;;;20.1;53.0
72162;BME280;66366;51.646;5.842;2023-03-23T16:51:25;100220.0;;;20.0;53.0
72162;BME280;66366;51.646;5.842;2023-03-23T16:56:26;100230.0;;;20.0;53.0
72162;BME280;66366;51.646;5.842;2023-03-23T17:01:26;100240.0;;;20.0;53.0
72162;BME280;66366;51.646;5.842;2023-03-23T17:06:26;100230.0;;;20.0;53.5
72162;BME280;66366;51.646;5.842;2023-03-23T17:11:26;100200.0;;;20.0;53.5
72162;BME280;66366;51.646;5.842;2023-03-23T17:16:26;100200.0;;;20.0;53.5
72162;BME280;66366;51.646;5.842;2023-03-23T17:21:26;100210.0;;;20.0;53.5
72162;BME280;66366;51.646;5.842;2023-03-23T17:26:26;100210.0;;;20.0;53.5
72162;BME280;66366;51.646;5.842;2023-03-23T17:31:26;100210.0;;;20.0;53.5
72162;BME280;66366;51.646;5.842;2023-03-23T17:36:26;100200.0;;;20.0;53.5
72162;BME280;66366;51.646;5.842;2023-03-23T17:41:26;100200.0;;;20.0;53.5
72162;BME280;66366;51.646;5.842;2023-03-23T17:46:26;100190.0;;;19.9;54.0
72162;BME280;66366;51.646;5.842;2023-03-23T17:51:26;100200.0;;;19.9;54.0
72162;BME280;66366;51.646;5.842;2023-03-23T17:56:26;100200.0;;;19.9;54.0
72162;BME280;66366;51.646;5.842;2023-03-23T18:01:26;100200.0;;;19.9;54.0
72162;BME280;66366;51.646;5.842;2023-03-23T18:06:26;100190.0;;;19.9;54.0
72162;BME280;66366;51.646;5.842;2023-03-23T18:11:26;100190.0;;;19.9;54.0
72162;BME280;66366;51.646;5.842;2023-03-23T18:16:26;100190.0;;;19.9;54.0
72162;BME280;66366;51.646;5.842;2023-03-23T18:21:26;100160.0;;;19.8;54.0
72162;BME280;66366;51.646;5.842;2023-03-23T18:26:27;100150.0;;;19.9;54.0
72162;BME280;66366;51.646;5.842;2023-03-23T18:31:26;100150.0;;;19.9;54.0
72162;BME280;66366;51.646;5.842;2023-03-23T18:36:26;100150.0;;;19.9;54.0
72162;BME280;66366;51.646;5.842;2023-03-23T18:41:26;100140.0;;;19.8;54.0
72162;BME280;66366;51.646;5.842;2023-03-23T18:46:26;100140.0;;;19.8;54.0
72162;BME280;66366;51.646;5.842;2023-03-23T18:51:26;100140.0;;;19.8;54.0
72162;BME280;66366;51.646;5.842;2023-03-23T18:56:26;100140.0;;;19.8;54.0
72162;BME280;66366;51.646;5.842;2023-03-23T19:01:26;100110.0;;;19.8;54.0
72162;BME280;66366;51.646;5.842;2023-03-23T19:06:26;100120.0;;;19.8;54.0
72162;BME280;66366;51.646;5.842;2023-03-23T19:11:26;100120.0;;;19.8;54.0
72162;BME280;66366;51.646;5.842;2023-03-23T19:16:26;100120.0;;;19.8;54.0
72162;BME280;66366;51.646;5.842;2023-03-23T19:21:27;100110.0;;;19.8;54.0
72162;BME280;66366;51.646;5.842;2023-03-23T19:26:35;100110.0;;;19.8;54.0
72162;BME280;66366;51.646;5.842;2023-03-23T19:31:26;100090.0;;;19.8;54.0
72162;BME280;66366;51.646;5.842;2023-03-23T19:41:26;100080.0;;;19.8;54.0
72162;BME280;66366;51.646;5.842;2023-03-23T19:46:26;100070.0;;;19.8;54.0
72162;BME280;66366;51.646;5.842;2023-03-23T19:51:27;100070.0;;;19.8;54.0
72162;BME280;66366;51.646;5.842;2023-03-23T19:56:26;100070.0;;;19.8;54.0
72162;BME280;66366;51.646;5.842;2023-03-23T20:01:26;100060.0;;;19.8;54.0
72162;BME280;66366;51.646;5.842;2023-03-23T20:06:26;100050.0;;;19.8;54.0
72162;BME280;66366;51.646;5.842;2023-03-23T20:11:27;100060.0;;;19.8;54.0
72162;BME280;66366;51.646;5.842;2023-03-23T20:16:26;100060.0;;;19.7;54.0
72162;BME280;66366;51.646;5.842;2023-03-23T20:21:26;100050.0;;;19.7;54.0
72162;BME280;66366;51.646;5.842;2023-03-23T20:26:28;100050.0;;;19.7;54.0
72162;BME280;66366;51.646;5.842;2023-03-23T20:31:28;100040.0;;;19.7;54.0
72162;BME280;66366;51.646;5.842;2023-03-23T20:36:27;100050.0;;;19.7;54.0
72162;BME280;66366;51.646;5.842;2023-03-23T20:41:26;100040.0;;;19.7;54.0
72162;BME280;66366;51.646;5.842;2023-03-23T20:46:26;100030.0;;;19.7;54.0
72162;BME280;66366;51.646;5.842;2023-03-23T20:51:27;100030.0;;;19.7;54.0
72162;BME280;66366;51.646;5.842;2023-03-23T20:56:26;100020.0;;;19.7;54.0
72162;BME280;66366;51.646;5.842;2023-03-23T21:01:26;100020.0;;;19.7;54.0
72162;BME280;66366;51.646;5.842;2023-03-23T21:06:26;100020.0;;;19.7;54.0
72162;BME280;66366;51.646;5.842;2023-03-23T21:11:26;100020.0;;;19.7;54.0
72162;BME280;66366;51.646;5.842;2023-03-23T21:16:26;100020.0;;;19.7;54.0
72162;BME280;66366;51.646;5.842;2023-03-23T21:21:26;100010.0;;;19.7;54.0
72162;BME280;66366;51.646;5.842;2023-03-23T21:26:28;100000.0;;;19.7;54.0
72162;BME280;66366;51.646;5.842;2023-03-23T21:31:28;100000.0;;;19.7;54.0
72162;BME280;66366;51.646;5.842;2023-03-23T21:36:27;99980.0;;;19.7;54.0
72162;BME280;66366;51.646;5.842;2023-03-23T21:41:27;99960.0;;;19.7;54.0
72162;BME280;66366;51.646;5.842;2023-03-23T21:46:26;99970.0;;;19.7;54.0
72162;BME280;66366;51.646;5.842;2023-03-23T21:51:28;99960.0;;;19.7;54.0
72162;BME280;66366;51.646;5.842;2023-03-23T21:56:27;99950.0;;;19.7;54.0
72162;BME280;66366;51.646;5.842;2023-03-23T22:01:26;99960.0;;;19.7;54.0
72162;BME280;66366;51.646;5.842;2023-03-23T22:06:26;99950.0;;;19.7;54.0
72162;BME280;66366;51.646;5.842;2023-03-23T22:11:29;99940.0;;;19.7;54.0
72162;BME280;66366;51.646;5.842;2023-03-23T22:16:27;99940.0;;;19.7;54.0
72162;BME280;66366;51.646;5.842;2023-03-23T22:21:27;99930.0;;;19.7;54.0
72162;BME280;66366;51.646;5.842;2023-03-23T22:26:28;99920.0;;;19.7;54.0
72162;BME280;66366;51.646;5.842;2023-03-23T22:31:29;99920.0;;;19.7;54.0
72162;BME280;66366;51.646;5.842;2023-03-23T22:36:28;99920.0;;;19.7;54.0
72162;BME280;66366;51.646;5.842;2023-03-23T22:41:28;99900.0;;;19.7;54.0
72162;BME280;66366;51.646;5.842;2023-03-23T22:46:27;99900.0;;;19.7;53.5
72162;BME280;66366;51.646;5.842;2023-03-23T22:51:26;99880.0;;;19.7;53.5
72162;BME280;66366;51.646;5.842;2023-03-23T22:56:27;99870.0;;;19.7;53.5
72162;BME280;66366;51.646;5.842;2023-03-23T23:01:27;99870.0;;;19.7;53.5
72162;BME280;66366;51.646;5.842;2023-03-23T23:06:27;99860.0;;;19.7;54.0
72162;BME280;66366;51.646;5.842;2023-03-23T23:11:27;99860.0;;;19.7;53.5
72162;BME280;66366;51.646;5.842;2023-03-23T23:16:27;99850.0;;;19.7;53.5
72162;BME280;66366;51.646;5.842;2023-03-23T23:21:27;99850.0;;;19.7;53.5
72162;BME280;66366;51.646;5.842;2023-03-23T23:26:27;99830.0;;;19.7;53.5
72162;BME280;66366;51.646;5.842;2023-03-23T23:31:28;99820.0;;;19.7;53.5
72162;BME280;66366;51.646;5.842;2023-03-23T23:36:27;99830.0;;;19.7;53.5
72162;BME280;66366;51.646;5.842;2023-03-23T23:41:27;99820.0;;;19.7;53.5
72162;BME280;66366;51.646;5.842;2023-03-23T23:46:27;99810.0;;;19.7;53.5
72162;BME280;66366;51.646;5.842;2023-03-23T23:51:27;99800.0;;;19.7;53.5
72162;BME280;66366;51.646;5.842;2023-03-23T23:56:27;99800.0;;;19.7;53.5
